Time;durP1;ratioP1;P1;durP2;ratioP2;P2;SDS_P1;SDS_P2;PMS_P1;PMS_P2;Temp;Humidity;BMP_temperature;BMP_pressure;BME280_temperature;BME280_humidity;BME280_pressure;Samples;Min_cycle;Max_cycle;Signal;HPM_P1;HPM_P2
2022/12/07 00:01:25;;;;;;;9.00;6.03;;;;;;;;;;5013787;28;20300;-65
2022/12/07 00:03:51;;;;;;;10.27;6.50;;;;;;;;;;5013344;28;20307;-64
2022/12/07 00:06:16;;;;;;;9.30;5.90;;;;;;;;;;5013645;28;20213;-64
2022/12/07 00:08:41;;;;;;;9.37;6.40;;;;;;;;;;5013924;28;20254;-64
2022/12/07 00:11:08;;;;;;;10.27;6.73;;;;;;;;;;5012749;28;20220;-65
2022/12/07 00:13:34;;;;;;;9.13;5.83;;;;;;;;;;5004364;28;20213;-64
2022/12/07 00:16:00;;;;;;;8.70;5.97;;;;;;;;;;5004256;28;20221;-64
2022/12/07 00:18:25;;;;;;;10.03;5.70;;;;;;;;;;4991824;28;20213;-64
2022/12/07 00:20:50;;;;;;;9.57;5.17;;;;;;;;;;4994347;28;20209;-64
2022/12/07 00:23:16;;;;;;;11.13;5.60;;;;;;;;;;4993719;28;20209;-64
2022/12/07 00:25:41;;;;;;;8.15;5.40;;;;;;;;;;4993221;28;20652;-64
2022/12/07 00:28:09;;;;;;;10.53;4.83;;;;;;;;;;4993785;28;20218;-64
2022/12/07 00:30:34;;;;;;;8.60;5.00;;;;;;;;;;4994524;28;20205;-64
2022/12/07 00:32:59;;;;;;;7.37;4.87;;;;;;;;;;4993106;28;20220;-64
2022/12/07 00:35:25;;;;;;;8.67;4.90;;;;;;;;;;4993664;28;20652;-63
2022/12/07 00:37:50;;;;;;;7.60;5.07;;;;;;;;;;4993976;28;20213;-63
2022/12/07 00:40:15;;;;;;;8.30;4.63;;;;;;;;;;4992395;28;20615;-63
2022/12/07 00:42:40;;;;;;;8.83;4.80;;;;;;;;;;4993768;28;20211;-63
2022/12/07 00:45:06;;;;;;;7.53;4.97;;;;;;;;;;4993450;28;20233;-63
2022/12/07 00:47:31;;;;;;;8.80;5.67;;;;;;;;;;4993162;28;20215;-63
2022/12/07 00:49:57;;;;;;;7.37;4.73;;;;;;;;;;4993868;28;20660;-63
2022/12/07 00:52:22;;;;;;;9.17;5.00;;;;;;;;;;4993186;28;20217;-63
2022/12/07 00:54:47;;;;;;;8.40;4.93;;;;;;;;;;4992444;28;20221;-64
2022/12/07 00:57:12;;;;;;;10.50;4.97;;;;;;;;;;5005302;28;20635;-64
2022/12/07 00:59:38;;;;;;;8.67;5.20;;;;;;;;;;5003945;28;20631;-64
2022/12/07 01:02:03;;;;;;;9.13;4.80;;;;;;;;;;4992197;28;20213;-64
2022/12/07 01:04:29;;;;;;;7.40;4.70;;;;;;;;;;4993403;28;20739;-64
2022/12/07 01:06:54;;;;;;;8.67;4.83;;;;;;;;;;4993502;28;20217;-64
2022/12/07 01:09:19;;;;;;;9.43;5.03;;;;;;;;;;4991110;28;20212;-64
2022/12/07 01:11:45;;;;;;;9.70;4.87;;;;;;;;;;4992904;28;20213;-64
2022/12/07 01:14:10;;;;;;;7.70;4.60;;;;;;;;;;4992168;28;20225;-64
2022/12/07 01:16:35;;;;;;;8.70;5.00;;;;;;;;;;4993379;28;20217;-64
2022/12/07 01:19:01;;;;;;;8.07;4.60;;;;;;;;;;4992763;28;20216;-64
2022/12/07 01:21:27;;;;;;;8.73;4.77;;;;;;;;;;4992596;28;20209;-64
2022/12/07 01:23:52;;;;;;;8.20;4.70;;;;;;;;;;4993299;28;20213;-64
2022/12/07 01:26:18;;;;;;;9.60;5.10;;;;;;;;;;4992540;28;20220;-64
2022/12/07 01:28:44;;;;;;;10.07;5.67;;;;;;;;;;4992428;28;20232;-64
2022/12/07 01:31:11;;;;;;;10.60;4.87;;;;;;;;;;4992960;28;20213;-64
2022/12/07 01:33:36;;;;;;;8.67;5.20;;;;;;;;;;4993228;28;20275;-64
2022/12/07 01:36:03;;;;;;;11.23;5.80;;;;;;;;;;4991952;28;20209;-64
2022/12/07 01:38:29;;;;;;;9.40;5.70;;;;;;;;;;4993095;28;20201;-64
2022/12/07 01:40:55;;;;;;;10.93;5.22;;;;;;;;;;4992859;28;20770;-64
2022/12/07 01:43:20;;;;;;;8.60;5.00;;;;;;;;;;4991615;28;20217;-64
2022/12/07 01:45:46;;;;;;;11.90;6.63;;;;;;;;;;4993167;28;20212;-64
2022/12/07 01:48:12;;;;;;;9.53;4.63;;;;;;;;;;4992590;28;20676;-64
2022/12/07 01:50:37;;;;;;;9.90;4.77;;;;;;;;;;4992494;28;20213;-64
2022/12/07 01:53:03;;;;;;;8.07;4.53;;;;;;;;;;4991078;28;20233;-64
2022/12/07 01:55:28;;;;;;;9.33;5.30;;;;;;;;;;5008853;28;20295;-64
2022/12/07 01:57:53;;;;;;;9.33;5.67;;;;;;;;;;4992514;28;20304;-64
2022/12/07 02:00:19;;;;;;;7.80;4.70;;;;;;;;;;4996777;28;20691;-64
2022/12/07 02:02:47;;;;;;;8.40;5.60;;;;;;;;;;5012454;28;20244;-64
2022/12/07 02:05:12;;;;;;;9.03;4.90;;;;;;;;;;5001872;28;20327;-64
2022/12/07 02:07:37;;;;;;;10.97;5.50;;;;;;;;;;5003170;28;20303;-64
2022/12/07 02:10:13;;;;;;;12.67;5.70;;;;;;;;;;5012891;28;20217;-64
2022/12/07 02:12:38;;;;;;;8.33;4.97;;;;;;;;;;5015343;28;20246;-64
2022/12/07 02:15:03;;;;;;;11.57;5.30;;;;;;;;;;5013196;28;20379;-64
2022/12/07 02:17:32;;;;;;;9.27;5.53;;;;;;;;;;4995892;28;20212;-64
2022/12/07 02:20:06;;;;;;;12.70;6.00;;;;;;;;;;4996318;28;20664;-64
2022/12/07 02:22:37;;;;;;;10.47;5.20;;;;;;;;;;4996182;28;20683;-64
2022/12/07 02:25:18;;;;;;;10.53;4.83;;;;;;;;;;4995172;28;20217;-64
2022/12/07 02:27:51;;;;;;;9.53;5.13;;;;;;;;;;4996212;28;20220;-64
2022/12/07 02:30:17;;;;;;;8.40;5.00;;;;;;;;;;4994792;28;20300;-64
2022/12/07 02:32:49;;;;;;;11.57;5.43;;;;;;;;;;4994569;28;20216;-64
2022/12/07 02:35:21;;;;;;;8.60;5.80;;;;;;;;;;4994502;28;20231;-64
2022/12/07 02:37:47;;;;;;;10.33;5.63;;;;;;;;;;4995054;28;20260;-64
2022/12/07 02:40:25;;;;;;;7.67;5.13;;;;;;;;;;4994842;28;20687;-64
2022/12/07 02:42:51;;;;;;;9.50;5.37;;;;;;;;;;4994625;28;20363;-64
2022/12/07 02:45:17;;;;;;;9.77;5.17;;;;;;;;;;4994449;28;20228;-64
2022/12/07 02:47:43;;;;;;;10.30;5.43;;;;;;;;;;4995321;28;20565;-64
2022/12/07 02:50:08;;;;;;;11.33;6.33;;;;;;;;;;4995629;28;20209;-64
2022/12/07 02:52:33;;;;;;;9.23;5.10;;;;;;;;;;4995062;28;20700;-64
2022/12/07 02:54:59;;;;;;;11.83;5.57;;;;;;;;;;4995554;28;20229;-64
2022/12/07 02:57:38;;;;;;;8.90;5.73;;;;;;;;;;4987339;28;20297;-64
2022/12/07 03:00:11;;;;;;;8.95;5.45;;;;;;;;;;4993719;28;20641;-64
2022/12/07 03:02:39;;;;;;;12.30;5.53;;;;;;;;;;5008335;28;20591;-64
2022/12/07 03:05:23;;;;;;;7.37;5.40;;;;;;;;;;5014830;28;20223;-64
2022/12/07 03:07:49;;;;;;;8.07;4.90;;;;;;;;;;5014585;28;20577;-64
2022/12/07 03:10:21;;;;;;;9.23;5.10;;;;;;;;;;5014745;28;20223;-64
2022/12/07 03:12:52;;;;;;;10.27;5.20;;;;;;;;;;5014819;28;20240;-64
2022/12/07 03:15:20;;;;;;;10.47;5.00;;;;;;;;;;5000281;28;20217;-64
2022/12/07 03:17:45;;;;;;;9.73;4.60;;;;;;;;;;4999182;28;20231;-64
2022/12/07 03:20:11;;;;;;;9.13;4.47;;;;;;;;;;5014686;28;20683;-64
2022/12/07 03:22:37;;;;;;;9.03;5.03;;;;;;;;;;5013006;28;20205;-64
2022/12/07 03:25:04;;;;;;;9.47;4.47;;;;;;;;;;5005119;28;20259;-64
2022/12/07 03:27:32;;;;;;;9.73;4.50;;;;;;;;;;5005257;28;20547;-64
2022/12/07 03:29:57;;;;;;;8.73;4.23;;;;;;;;;;5004750;28;20707;-64
2022/12/07 03:32:25;;;;;;;11.40;4.77;;;;;;;;;;5014275;28;20295;-64
2022/12/07 03:34:53;;;;;;;9.03;4.53;;;;;;;;;;5014171;28;20282;-64
2022/12/07 03:37:20;;;;;;;10.70;4.57;;;;;;;;;;5004728;28;20220;-64
2022/12/07 03:39:49;;;;;;;10.60;4.53;;;;;;;;;;5014552;28;20213;-63
2022/12/07 03:42:14;;;;;;;8.83;4.13;;;;;;;;;;5000474;28;20217;-65
2022/12/07 03:44:39;;;;;;;9.47;4.20;;;;;;;;;;4984050;28;20201;-65
2022/12/07 03:47:06;;;;;;;8.77;4.20;;;;;;;;;;4999728;28;20220;-64
2022/12/07 03:49:37;;;;;;;11.80;4.33;;;;;;;;;;4997523;28;20205;-64
2022/12/07 03:52:04;;;;;;;7.83;4.30;;;;;;;;;;4976035;28;20213;-64
2022/12/07 03:54:47;;;;;;;9.57;3.87;;;;;;;;;;4982124;28;20229;-64
2022/12/07 03:57:12;;;;;;;10.80;4.00;;;;;;;;;;4984695;28;20672;-64
2022/12/07 03:59:38;;;;;;;9.97;4.23;;;;;;;;;;4993172;28;20220;-64
2022/12/07 04:02:03;;;;;;;9.63;3.80;;;;;;;;;;5001547;28;20654;-64
2022/12/07 04:04:29;;;;;;;10.63;3.80;;;;;;;;;;5003401;28;20667;-64
2022/12/07 04:06:54;;;;;;;9.63;3.93;;;;;;;;;;5003635;28;20823;-64
2022/12/07 04:09:20;;;;;;;9.23;3.70;;;;;;;;;;4984117;28;20383;-64
2022/12/07 04:11:45;;;;;;;9.63;4.03;;;;;;;;;;5000933;28;20287;-64
2022/12/07 04:14:19;;;;;;;7.67;3.70;;;;;;;;;;4978181;28;20237;-64
2022/12/07 04:16:45;;;;;;;10.93;3.60;;;;;;;;;;4980020;28;20220;-64
2022/12/07 04:19:11;;;;;;;9.60;3.60;;;;;;;;;;4976300;28;20213;-64
2022/12/07 04:21:36;;;;;;;10.27;3.80;;;;;;;;;;4984183;28;20236;-65
2022/12/07 04:24:01;;;;;;;8.00;3.83;;;;;;;;;;4983413;28;20579;-64
2022/12/07 04:26:26;;;;;;;8.43;3.60;;;;;;;;;;4984712;28;20267;-64
2022/12/07 04:28:52;;;;;;;9.83;3.50;;;;;;;;;;4984198;28;20228;-64
2022/12/07 04:31:17;;;;;;;10.30;3.73;;;;;;;;;;4983044;28;20294;-65
2022/12/07 04:33:42;;;;;;;7.37;3.40;;;;;;;;;;4983734;28;20224;-65
2022/12/07 04:36:07;;;;;;;6.90;3.63;;;;;;;;;;4978286;28;20251;-64
2022/12/07 04:38:33;;;;;;;7.73;3.50;;;;;;;;;;4975518;28;20762;-65
2022/12/07 04:40:58;;;;;;;7.17;2.93;;;;;;;;;;4976042;28;20219;-65
2022/12/07 04:43:23;;;;;;;13.97;3.57;;;;;;;;;;4986716;28;20616;-65
2022/12/07 04:45:49;;;;;;;6.90;2.90;;;;;;;;;;4992682;28;20221;-65
2022/12/07 04:48:14;;;;;;;10.57;3.30;;;;;;;;;;4993448;28;20238;-65
2022/12/07 04:50:39;;;;;;;7.53;3.20;;;;;;;;;;5001792;28;20208;-65
2022/12/07 04:53:04;;;;;;;8.90;3.40;;;;;;;;;;5011870;28;20223;-64
2022/12/07 04:55:30;;;;;;;6.23;2.83;;;;;;;;;;4996675;28;20209;-65
2022/12/07 04:57:55;;;;;;;8.93;3.27;;;;;;;;;;4993535;28;20229;-64
2022/12/07 05:00:20;;;;;;;8.83;3.07;;;;;;;;;;5006232;28;20547;-65
2022/12/07 05:02:46;;;;;;;7.67;3.30;;;;;;;;;;5012922;28;20232;-64
2022/12/07 05:05:11;;;;;;;6.37;3.10;;;;;;;;;;5012733;28;20299;-64
2022/12/07 05:07:36;;;;;;;8.37;3.03;;;;;;;;;;5012002;28;20220;-64
2022/12/07 05:10:01;;;;;;;10.77;3.53;;;;;;;;;;5012757;28;20212;-64
2022/12/07 05:12:27;;;;;;;11.73;3.10;;;;;;;;;;5003841;28;20676;-65
2022/12/07 05:14:52;;;;;;;7.77;3.07;;;;;;;;;;4983242;28;20294;-65
2022/12/07 05:17:17;;;;;;;6.10;2.90;;;;;;;;;;5016692;28;20570;-65
2022/12/07 05:19:42;;;;;;;7.80;3.00;;;;;;;;;;4989325;28;20317;-65
2022/12/07 05:22:08;;;;;;;9.53;3.13;;;;;;;;;;4989841;28;20216;-64
2022/12/07 05:24:33;;;;;;;5.63;2.73;;;;;;;;;;4984533;28;20324;-65
2022/12/07 05:26:58;;;;;;;9.23;3.00;;;;;;;;;;4998939;28;20212;-65
2022/12/07 05:29:24;;;;;;;7.53;2.70;;;;;;;;;;4994571;28;20303;-64
2022/12/07 05:31:49;;;;;;;8.50;2.73;;;;;;;;;;4994496;28;20212;-65
2022/12/07 05:34:14;;;;;;;7.53;2.80;;;;;;;;;;4994466;28;20232;-65
2022/12/07 05:36:39;;;;;;;9.10;3.43;;;;;;;;;;4982499;28;20228;-65
2022/12/07 05:39:05;;;;;;;8.17;3.17;;;;;;;;;;4984032;28;20217;-65
2022/12/07 05:44:14;;;;;;;6.67;2.77;;;;;;;;;;4995075;28;20236;-64
2022/12/07 05:46:40;;;;;;;9.87;2.93;;;;;;;;;;4987058;28;20209;-65
2022/12/07 05:49:05;;;;;;;7.70;3.00;;;;;;;;;;4990764;28;20228;-64
2022/12/07 05:51:30;;;;;;;8.67;2.97;;;;;;;;;;4980198;28;20217;-65
2022/12/07 05:53:55;;;;;;;7.70;2.93;;;;;;;;;;4978956;28;20221;-65
2022/12/07 05:56:21;;;;;;;7.63;2.80;;;;;;;;;;4978687;28;20247;-65
2022/12/07 06:01:30;;;;;;;12.23;3.57;;;;;;;;;;4976763;28;20635;-64
2022/12/07 06:03:55;;;;;;;7.67;2.77;;;;;;;;;;4968465;28;20229;-65
2022/12/07 06:06:21;;;;;;;9.90;3.17;;;;;;;;;;4986519;28;20216;-65
2022/12/07 06:08:46;;;;;;;8.47;3.10;;;;;;;;;;4986436;28;20299;-65
2022/12/07 06:13:55;;;;;;;6.80;2.60;;;;;;;;;;4975863;28;20244;-65
2022/12/07 06:16:20;;;;;;;10.47;2.90;;;;;;;;;;4958741;28;20214;-65
2022/12/07 06:18:46;;;;;;;9.93;3.10;;;;;;;;;;4958816;28;20218;-65
2022/12/07 06:21:11;;;;;;;9.27;3.30;;;;;;;;;;4965483;28;20226;-65
2022/12/07 06:23:36;;;;;;;9.40;3.00;;;;;;;;;;4966537;28;20213;-65
2022/12/07 06:26:02;;;;;;;5.73;2.70;;;;;;;;;;4966977;28;20214;-64
2022/12/07 06:28:27;;;;;;;11.03;3.63;;;;;;;;;;4975179;28;20576;-65
2022/12/07 06:30:59;;;;;;;19.93;9.00;;;;;;;;;;4985243;28;20213;-65
2022/12/07 06:33:24;;;;;;;46.00;24.43;;;;;;;;;;4985336;28;20229;-65
2022/12/07 06:35:49;;;;;;;13.50;6.27;;;;;;;;;;4982417;28;20213;-65
2022/12/07 06:38:15;;;;;;;19.77;10.07;;;;;;;;;;4977112;28;20875;-65
2022/12/07 06:40:40;;;;;;;11.90;5.67;;;;;;;;;;4978412;28;20224;-65
2022/12/07 06:43:05;;;;;;;9.83;4.40;;;;;;;;;;4977331;28;20213;-65
2022/12/07 06:45:30;;;;;;;13.33;4.37;;;;;;;;;;4965876;28;20206;-65
2022/12/07 06:47:56;;;;;;;11.53;3.27;;;;;;;;;;4966289;28;20222;-65
2022/12/07 06:50:21;;;;;;;12.90;6.77;;;;;;;;;;4970960;28;20316;-65
2022/12/07 06:52:46;;;;;;;12.90;3.67;;;;;;;;;;4967674;28;20217;-65
2022/12/07 06:55:12;;;;;;;11.97;2.93;;;;;;;;;;4967900;28;20227;-65
2022/12/07 06:57:37;;;;;;;9.93;3.13;;;;;;;;;;4965222;28;20209;-65
2022/12/07 07:00:03;;;;;;;11.93;3.50;;;;;;;;;;4958329;28;20686;-65
2022/12/07 07:02:28;;;;;;;8.97;2.93;;;;;;;;;;4958391;28;20261;-62
2022/12/07 07:04:54;;;;;;;9.97;4.50;;;;;;;;;;4959942;28;20684;-66
2022/12/07 07:07:19;;;;;;;8.47;2.90;;;;;;;;;;4965547;28;20217;-61
2022/12/07 07:09:45;;;;;;;8.07;2.27;;;;;;;;;;4968234;28;20576;-62
2022/12/07 07:12:10;;;;;;;8.37;2.77;;;;;;;;;;4966291;28;20224;-66
2022/12/07 07:14:36;;;;;;;7.30;2.90;;;;;;;;;;4964430;28;20442;-63
2022/12/07 07:17:01;;;;;;;6.57;2.40;;;;;;;;;;4966371;28;20921;-63
2022/12/07 07:19:26;;;;;;;8.73;2.50;;;;;;;;;;4966003;28;20229;-65
2022/12/07 07:21:52;;;;;;;9.10;2.80;;;;;;;;;;4959706;28;20206;-65
2022/12/07 07:24:17;;;;;;;9.87;2.37;;;;;;;;;;4957348;28;20237;-65
2022/12/07 07:26:42;;;;;;;8.37;2.63;;;;;;;;;;4958297;28;20221;-64
2022/12/07 07:29:09;;;;;;;6.50;2.50;;;;;;;;;;4963031;28;20205;-64
2022/12/07 07:31:35;;;;;;;8.13;2.40;;;;;;;;;;4965996;28;20657;-65
2022/12/07 07:34:00;;;;;;;9.40;2.57;;;;;;;;;;4964964;28;20221;-64
2022/12/07 07:36:26;;;;;;;5.87;2.30;;;;;;;;;;4965892;28;20288;-65
2022/12/07 07:38:51;;;;;;;9.33;2.40;;;;;;;;;;4966627;28;20543;-64
2022/12/07 07:41:16;;;;;;;7.23;2.40;;;;;;;;;;4964643;28;20209;-64
2022/12/07 07:43:42;;;;;;;9.03;2.40;;;;;;;;;;4962310;28;20230;-64
2022/12/07 07:46:07;;;;;;;6.90;2.37;;;;;;;;;;4957595;28;20206;-65
2022/12/07 07:48:32;;;;;;;8.97;2.60;;;;;;;;;;4957390;28;20244;-65
2022/12/07 07:50:57;;;;;;;5.43;2.10;;;;;;;;;;4962192;28;20249;-65
2022/12/07 07:53:23;;;;;;;7.17;1.80;;;;;;;;;;4965847;28;20290;-65
2022/12/07 07:55:52;;;;;;;8.63;2.43;;;;;;;;;;4963906;28;20801;-65
2022/12/07 07:58:17;;;;;;;9.63;2.47;;;;;;;;;;4966408;28;20213;-64
2022/12/07 08:00:43;;;;;;;8.90;2.20;;;;;;;;;;4971681;28;20673;-64
2022/12/07 08:03:08;;;;;;;9.20;2.40;;;;;;;;;;4980922;28;20232;-64
2022/12/07 08:05:33;;;;;;;4.80;1.70;;;;;;;;;;4985062;28;20216;-65
2022/12/07 08:07:58;;;;;;;6.00;1.77;;;;;;;;;;4982928;28;20197;-64
2022/12/07 08:10:24;;;;;;;9.77;2.47;;;;;;;;;;4983204;28;20270;-64
2022/12/07 08:15:33;;;;;;;5.93;1.80;;;;;;;;;;5003225;28;20224;-65
2022/12/07 08:17:58;;;;;;;9.43;1.90;;;;;;;;;;5002110;28;20205;-65
2022/12/07 08:20:23;;;;;;;8.30;2.07;;;;;;;;;;5002964;28;20219;-64
2022/12/07 08:22:49;;;;;;;5.47;1.57;;;;;;;;;;5003441;28;20220;-65
2022/12/07 08:25:14;;;;;;;6.13;1.70;;;;;;;;;;5001068;28;20235;-64
2022/12/07 08:27:39;;;;;;;8.17;1.90;;;;;;;;;;5004356;28;20208;-65
2022/12/07 08:30:05;;;;;;;10.57;1.77;;;;;;;;;;5002474;28;20239;-65
2022/12/07 08:32:30;;;;;;;8.07;2.23;;;;;;;;;;5000759;28;20226;-64
2022/12/07 08:34:55;;;;;;;10.10;2.33;;;;;;;;;;5003813;28;20706;-65
2022/12/07 08:37:21;;;;;;;5.80;2.00;;;;;;;;;;5012505;28;20291;-65
2022/12/07 08:39:46;;;;;;;8.67;2.23;;;;;;;;;;5013431;28;20212;-65
2022/12/07 08:42:11;;;;;;;8.03;2.00;;;;;;;;;;4996155;28;20205;-64
2022/12/07 08:44:37;;;;;;;8.37;2.00;;;;;;;;;;4993119;28;20249;-64
2022/12/07 08:47:02;;;;;;;5.80;1.73;;;;;;;;;;4993224;28;20581;-64
2022/12/07 08:49:31;;;;;;;6.30;1.80;;;;;;;;;;4992079;28;20240;-64
2022/12/07 08:51:56;;;;;;;9.20;1.90;;;;;;;;;;4994481;28;20676;-65
2022/12/07 08:54:22;;;;;;;7.20;1.80;;;;;;;;;;4992908;28;20213;-64
2022/12/07 08:56:47;;;;;;;6.80;1.70;;;;;;;;;;4992364;28;20213;-68
2022/12/07 08:59:12;;;;;;;7.80;1.70;;;;;;;;;;4976664;28;20772;-68
2022/12/07 09:01:38;;;;;;;5.73;1.93;;;;;;;;;;4993600;28;20217;-68
2022/12/07 09:04:03;;;;;;;7.43;1.73;;;;;;;;;;4992608;28;20221;-67
2022/12/07 09:06:28;;;;;;;9.80;2.20;;;;;;;;;;4992285;28;20287;-67
2022/12/07 09:08:54;;;;;;;5.37;1.60;;;;;;;;;;4993551;28;20250;-67
2022/12/07 09:11:20;;;;;;;7.53;1.97;;;;;;;;;;4991598;28;20300;-67
2022/12/07 09:13:45;;;;;;;8.43;1.97;;;;;;;;;;4995549;28;20367;-68
2022/12/07 09:16:10;;;;;;;7.20;1.87;;;;;;;;;;4983545;28;20214;-67
2022/12/07 09:18:36;;;;;;;6.43;1.63;;;;;;;;;;4978148;28;20222;-67
2022/12/07 09:21:01;;;;;;;7.47;1.80;;;;;;;;;;4980374;28;20208;-67
2022/12/07 09:23:26;;;;;;;8.97;1.83;;;;;;;;;;4976577;28;20304;-69
2022/12/07 09:25:52;;;;;;;6.33;1.50;;;;;;;;;;4982899;28;20705;-68
2022/12/07 09:28:17;;;;;;;7.20;1.70;;;;;;;;;;4999212;28;20216;-68
2022/12/07 09:30:48;;;;;;;8.23;2.00;;;;;;;;;;5001067;28;20631;-66
2022/12/07 09:33:13;;;;;;;7.00;1.60;;;;;;;;;;4992567;28;20639;-67
2022/12/07 09:35:43;;;;;;;5.83;1.40;;;;;;;;;;4992017;28;20333;-68
2022/12/07 09:38:09;;;;;;;6.67;1.53;;;;;;;;;;4992409;28;20260;-64
2022/12/07 09:40:34;;;;;;;5.93;1.30;;;;;;;;;;4992172;28;20291;-66
2022/12/07 09:42:59;;;;;;;9.67;1.40;;;;;;;;;;4992864;28;20220;-66
2022/12/07 09:45:26;;;;;;;7.70;1.57;;;;;;;;;;4992381;28;20220;-66
2022/12/07 09:47:51;;;;;;;6.47;1.40;;;;;;;;;;4991979;28;20227;-65
2022/12/07 09:50:20;;;;;;;5.27;1.33;;;;;;;;;;5000259;28;20307;-66
2022/12/07 09:52:45;;;;;;;9.87;1.50;;;;;;;;;;5007458;28;20690;-66
2022/12/07 09:55:12;;;;;;;5.07;1.30;;;;;;;;;;5011276;28;20236;-66
2022/12/07 09:57:38;;;;;;;8.37;1.43;;;;;;;;;;4995251;28;20582;-66
2022/12/07 10:00:04;;;;;;;6.10;1.50;;;;;;;;;;4994519;28;20212;-65
2022/12/07 10:02:34;;;;;;;7.00;1.50;;;;;;;;;;5010094;28;20582;-65
2022/12/07 10:04:59;;;;;;;5.18;1.33;;;;;;;;;;5012023;28;20236;-66
2022/12/07 10:07:25;;;;;;;6.93;1.33;;;;;;;;;;5007986;28;20243;-66
2022/12/07 10:09:50;;;;;;;6.13;1.40;;;;;;;;;;5002202;28;20291;-65
2022/12/07 10:12:15;;;;;;;7.05;1.27;;;;;;;;;;4992216;28;20213;-65
2022/12/07 10:14:52;;;;;;;9.32;1.30;;;;;;;;;;4992624;28;20669;-65
2022/12/07 10:17:28;;;;;;;5.10;1.40;;;;;;;;;;4991722;28;20217;-65
2022/12/07 10:20:07;;;;;;;4.75;1.35;;;;;;;;;;5007231;28;20310;-65
2022/12/07 10:22:32;;;;;;;5.32;1.30;;;;;;;;;;4999843;28;20347;-65
2022/12/07 10:24:57;;;;;;;7.05;1.67;;;;;;;;;;4991925;28;20304;-65
2022/12/07 10:27:30;;;;;;;7.35;1.70;;;;;;;;;;5007035;28;20207;-65
2022/12/07 10:29:57;;;;;;;10.82;1.60;;;;;;;;;;4996859;28;20707;-65
2022/12/07 10:32:33;;;;;;;5.78;1.48;;;;;;;;;;5005366;28;20598;-65
2022/12/07 10:35:18;;;;;;;9.05;1.48;;;;;;;;;;5015678;28;20259;-65
2022/12/07 10:37:45;;;;;;;4.75;1.42;;;;;;;;;;5006279;28;20299;-63
2022/12/07 10:40:23;;;;;;;4.32;1.15;;;;;;;;;;5015369;28;20251;-64
2022/12/07 10:42:59;;;;;;;7.22;1.50;;;;;;;;;;5015673;28;20221;-63
2022/12/07 10:45:25;;;;;;;5.65;1.70;;;;;;;;;;5014270;28;20266;-64
2022/12/07 10:47:50;;;;;;;9.55;2.20;;;;;;;;;;5014587;28;20209;-63
2022/12/07 10:50:34;;;;;;;9.77;1.98;;;;;;;;;;5015328;28;20216;-63
2022/12/07 10:53:00;;;;;;;7.43;1.40;;;;;;;;;;5014243;28;20216;-63
2022/12/07 10:55:32;;;;;;;5.82;1.60;;;;;;;;;;5006925;28;20675;-63
2022/12/07 10:58:11;;;;;;;4.55;1.63;;;;;;;;;;4996167;28;20742;-63
2022/12/07 11:00:42;;;;;;;7.38;1.60;;;;;;;;;;4994164;28;20295;-63
2022/12/07 11:03:21;;;;;;;6.72;1.50;;;;;;;;;;4993438;28;20236;-63
2022/12/07 11:05:55;;;;;;;7.30;1.70;;;;;;;;;;4994900;28;20221;-63
2022/12/07 11:08:22;;;;;;;6.55;1.40;;;;;;;;;;4994804;28;20235;-63
2022/12/07 11:10:51;;;;;;;6.53;1.45;;;;;;;;;;4995535;28;20267;-63
2022/12/07 11:13:23;;;;;;;6.05;1.30;;;;;;;;;;4989622;28;20217;-63
2022/12/07 11:15:52;;;;;;;7.85;1.65;;;;;;;;;;5000709;28;20231;-63
2022/12/07 11:18:27;;;;;;;8.63;1.98;;;;;;;;;;4995735;28;20611;-63
2022/12/07 11:20:52;;;;;;;5.22;1.40;;;;;;;;;;4994572;28;20220;-63
2022/12/07 11:23:36;;;;;;;5.05;1.30;;;;;;;;;;4994611;28;20220;-63
2022/12/07 11:26:04;;;;;;;8.20;1.50;;;;;;;;;;4994004;28;20221;-63
2022/12/07 11:28:53;;;;;;;5.35;1.30;;;;;;;;;;4995190;28;20292;-63
2022/12/07 11:31:22;;;;;;;6.13;1.30;;;;;;;;;;4994686;28;20217;-63
2022/12/07 11:33:53;;;;;;;5.05;1.27;;;;;;;;;;4992711;28;20229;-63
2022/12/07 11:36:37;;;;;;;6.10;1.45;;;;;;;;;;4993340;28;20221;-63
2022/12/07 11:39:03;;;;;;;5.88;1.40;;;;;;;;;;4994190;28;20235;-63
2022/12/07 11:41:30;;;;;;;5.55;1.15;;;;;;;;;;4992906;28;20838;-63
2022/12/07 11:43:57;;;;;;;6.82;1.30;;;;;;;;;;4993944;28;20905;-63
2022/12/07 11:46:25;;;;;;;4.78;1.17;;;;;;;;;;4993173;28;20216;-63
2022/12/07 11:48:54;;;;;;;3.83;0.90;;;;;;;;;;4993848;28;20209;-63
2022/12/07 11:51:20;;;;;;;5.28;1.13;;;;;;;;;;4994378;28;20217;-63
2022/12/07 11:53:53;;;;;;;9.13;1.75;;;;;;;;;;4993219;28;20692;-63
2022/12/07 11:56:20;;;;;;;7.05;1.02;;;;;;;;;;4988324;28;20213;-65
2022/12/07 11:58:49;;;;;;;5.93;1.15;;;;;;;;;;4976566;28;20547;-64
2022/12/07 12:01:15;;;;;;;5.13;1.20;;;;;;;;;;5011176;28;20738;-64
2022/12/07 12:03:42;;;;;;;6.30;1.48;;;;;;;;;;5013570;28;20229;-64
2022/12/07 12:06:07;;;;;;;5.85;1.30;;;;;;;;;;5004215;28;20239;-63
2022/12/07 12:08:34;;;;;;;7.97;1.25;;;;;;;;;;5013251;28;20248;-64
2022/12/07 12:11:10;;;;;;;6.80;1.17;;;;;;;;;;5013750;28;20211;-64
2022/12/07 12:13:43;;;;;;;6.55;1.25;;;;;;;;;;5005502;28;20307;-64
2022/12/07 12:16:15;;;;;;;5.13;1.17;;;;;;;;;;4991161;28;20258;-64
2022/12/07 12:18:53;;;;;;;7.80;1.20;;;;;;;;;;4974498;28;20315;-64
2022/12/07 12:21:20;;;;;;;3.47;0.95;;;;;;;;;;4974409;28;20213;-64
2022/12/07 12:23:48;;;;;;;4.82;1.00;;;;;;;;;;4972653;28;20218;-64
2022/12/07 12:26:16;;;;;;;6.20;1.50;;;;;;;;;;4972733;28;20622;-64
2022/12/07 12:28:41;;;;;;;7.70;1.38;;;;;;;;;;4974788;28;20272;-64
2022/12/07 12:31:14;;;;;;;5.28;1.05;;;;;;;;;;4973654;28;20615;-64
2022/12/07 12:33:44;;;;;;;5.40;1.13;;;;;;;;;;4972763;28;20234;-64
2022/12/07 12:36:15;;;;;;;6.03;1.20;;;;;;;;;;4972799;28;20677;-64
2022/12/07 12:38:48;;;;;;;4.97;1.50;;;;;;;;;;4974468;28;20218;-64
2022/12/07 12:41:32;;;;;;;4.82;1.42;;;;;;;;;;4973727;28;20296;-64
2022/12/07 12:43:57;;;;;;;4.30;1.10;;;;;;;;;;4973665;28;20571;-64
2022/12/07 12:46:29;;;;;;;4.63;1.08;;;;;;;;;;4974256;28;20293;-64
2022/12/07 12:48:54;;;;;;;7.20;1.17;;;;;;;;;;4973982;28;20301;-64
2022/12/07 12:51:36;;;;;;;6.20;1.40;;;;;;;;;;4971933;28;20309;-64
2022/12/07 12:54:03;;;;;;;6.07;1.15;;;;;;;;;;4973703;28;20237;-64
2022/12/07 12:56:34;;;;;;;8.75;1.60;;;;;;;;;;4983888;28;20212;-64
2022/12/07 12:59:29;;;;;;;7.80;1.42;;;;;;;;;;5009127;28;20644;-64
2022/12/07 13:02:06;;;;;;;8.85;1.38;;;;;;;;;;4991271;28;20672;-64
2022/12/07 13:04:40;;;;;;;7.75;1.15;;;;;;;;;;4981151;28;20556;-64
2022/12/07 13:07:09;;;;;;;6.40;1.10;;;;;;;;;;4972284;28;20218;-64
2022/12/07 13:09:34;;;;;;;8.77;1.20;;;;;;;;;;4972906;28;20296;-64
2022/12/07 13:12:01;;;;;;;5.65;1.20;;;;;;;;;;4976968;28;20292;-64
2022/12/07 13:14:39;;;;;;;6.97;1.20;;;;;;;;;;4996513;28;20276;-64
2022/12/07 13:17:06;;;;;;;5.55;1.02;;;;;;;;;;4991493;28;20224;-64
2022/12/07 13:19:41;;;;;;;6.03;1.13;;;;;;;;;;4991133;28;20248;-64
2022/12/07 13:22:25;;;;;;;5.72;1.33;;;;;;;;;;4992695;28;20290;-64
2022/12/07 13:24:54;;;;;;;6.03;1.20;;;;;;;;;;4993199;28;20665;-64
2022/12/07 13:27:19;;;;;;;6.60;1.02;;;;;;;;;;4998139;28;20244;-65
2022/12/07 13:29:44;;;;;;;5.47;1.23;;;;;;;;;;5004437;28;20255;-64
2022/12/07 13:32:17;;;;;;;8.05;1.20;;;;;;;;;;4994319;28;20635;-64
2022/12/07 13:34:43;;;;;;;7.20;1.30;;;;;;;;;;4990789;28;20676;-65
2022/12/07 13:37:27;;;;;;;7.97;1.40;;;;;;;;;;4992640;28;20275;-64
2022/12/07 13:39:53;;;;;;;2.30;0.70;;;;;;;;;;4991193;28;20224;-65
2022/12/07 13:42:24;;;;;;;3.28;0.80;;;;;;;;;;4992528;28;20221;-65
2022/12/07 13:44:49;;;;;;;4.55;0.90;;;;;;;;;;4993117;28;20213;-66
2022/12/07 13:47:20;;;;;;;6.35;1.20;;;;;;;;;;4991652;28;20227;-64
2022/12/07 13:49:48;;;;;;;5.78;1.55;;;;;;;;;;5002217;28;20275;-64
2022/12/07 13:52:14;;;;;;;9.25;1.38;;;;;;;;;;4992260;28;20243;-64
2022/12/07 13:54:43;;;;;;;6.95;1.20;;;;;;;;;;4991271;28;20236;-64
2022/12/07 13:57:09;;;;;;;7.05;1.30;;;;;;;;;;5003430;28;20220;-64
2022/12/07 13:59:34;;;;;;;5.15;1.20;;;;;;;;;;5003860;28;20208;-64
2022/12/07 14:01:59;;;;;;;6.47;1.40;;;;;;;;;;4991282;28;20217;-64
2022/12/07 14:04:29;;;;;;;5.05;1.35;;;;;;;;;;4992127;28;20573;-64
2022/12/07 14:06:54;;;;;;;6.30;1.30;;;;;;;;;;4995172;28;20221;-64
2022/12/07 14:09:20;;;;;;;5.50;1.00;;;;;;;;;;4994345;28;20236;-64
2022/12/07 14:11:46;;;;;;;6.00;1.20;;;;;;;;;;4998795;28;20216;-70
2022/12/07 14:14:13;;;;;;;5.95;1.13;;;;;;;;;;4999404;28;20731;-68
2022/12/07 14:16:39;;;;;;;5.68;1.40;;;;;;;;;;5009345;28;20212;-67
2022/12/07 14:19:05;;;;;;;7.30;1.40;;;;;;;;;;5015800;28;20239;-66
2022/12/07 14:21:31;;;;;;;5.72;1.10;;;;;;;;;;5003617;28;20217;-67
2022/12/07 14:24:07;;;;;;;5.72;1.20;;;;;;;;;;4995676;28;20221;-66
2022/12/07 14:26:33;;;;;;;6.13;1.05;;;;;;;;;;5006263;28;20212;-67
2022/12/07 14:29:17;;;;;;;5.75;1.20;;;;;;;;;;4995979;28;20236;-66
2022/12/07 14:31:42;;;;;;;7.38;1.15;;;;;;;;;;4990092;28;20699;-66
2022/12/07 14:34:11;;;;;;;6.47;0.80;;;;;;;;;;4995780;28;20233;-65
2022/12/07 14:36:36;;;;;;;5.55;1.02;;;;;;;;;;4994778;28;20574;-66
2022/12/07 14:39:02;;;;;;;4.13;0.80;;;;;;;;;;4995460;28;20213;-65
2022/12/07 14:44:11;;;;;;;4.43;1.20;;;;;;;;;;4994708;28;20687;-64
2022/12/07 14:46:36;;;;;;;4.60;1.40;;;;;;;;;;4996008;28;20295;-65
2022/12/07 14:49:01;;;;;;;4.40;1.20;;;;;;;;;;4995773;28;20303;-64
2022/12/07 14:51:27;;;;;;;5.82;1.20;;;;;;;;;;4995355;28;20217;-64
2022/12/07 14:53:52;;;;;;;3.30;0.95;;;;;;;;;;4994638;28;20224;-64
2022/12/07 14:56:17;;;;;;;4.00;1.20;;;;;;;;;;4999391;28;20248;-64